Paul Andrew — WCP2545 — position and weather

sailwx.info

Track history (hours):
 
Tides and Currents Weather Stations Pressure Air Temp Water Temp Dewpoint Dewpoint Depression Visibility Wind Speed Wind Dir Waves Ship Positions

Paul Andrew

Owner: Donjon Marine Co., Inc., HILLSIDE, NJ. More information available from US FCC via Universal Licensing System and Coast Guard Vessel Documentation Center.

Last reported at 2017-Nov-23 09:00 UTC. Time now 2017-Nov-23 09:26 UTC.
Position N 41°17' W 072°21'.

Length 20 m; draft 2.5 m.

Type: Tug. MMSI: 366979030.

Date/timePositionNaut miles runAvg speedWind from/ knotsBaromVisibWave heightAir tempDewpointWater temp
2017-Nov-23 09:00N 41°17' W 072°21'1 1.3
2017-Nov-23 08:29N 41°17' W 072°21'0 0.0
2017-Nov-23 07:59N 41°17' W 072°21'0 0.0
2017-Nov-23 07:29N 41°17' W 072°21'0 0.0
2017-Nov-23 06:53N 41°17' W 072°21'0 0.2
2017-Nov-23 06:30N 41°17' W 072°21'2 4.4
2017-Nov-23 06:00N 41°15' W 072°21'0 0.6
2017-Nov-23 05:30N 41°15' W 072°22'2 3.4
2017-Nov-23 05:00N 41°17' W 072°21'0 0.4
2017-Nov-23 04:06N 41°17' W 072°21'0 0.0
2017-Nov-23 02:17N 41°17' W 072°21'2 6.0
2017-Nov-23 02:00N 41°16' W 072°21'1 1.0
2017-Nov-23 00:37N 41°15' W 072°22'0 0.1
2017-Nov-23 00:19N 41°15' W 072°22'1 4.3
2017-Nov-23 00:00N 41°16' W 072°21'2 2.9
2017-Nov-22 23:24N 41°17' W 072°21'0 0.0
2017-Nov-22 22:55N 41°17' W 072°21'1 3.2
2017-Nov-22 22:31N 41°16' W 072°20'2 2.8
2017-Nov-22 21:57N 41°15' W 072°22'2 3.5
2017-Nov-22 21:30N 41°16' W 072°20'1 1.7
2017-Nov-22 20:47N 41°17' W 072°21'0 0.0
2017-Nov-22 20:23N 41°17' W 072°21'0 0.0
2017-Nov-22 19:59N 41°17' W 072°21'2 3.7
2017-Nov-22 19:30N 41°16' W 072°21'  
2017-Nov-16 20:27N 41°15' W 072°16'2 4.6
2017-Nov-16 19:55N 41°15' W 072°19'2 5.0
2017-Nov-16 19:30N 41°15' W 072°22'0 0.1
2017-Nov-16 18:19N 41°15' W 072°22'0 0.0
2017-Nov-16 16:01N 41°15' W 072°22'0 0.0
2017-Nov-16 15:49N 41°15' W 072°22'0 0.0
2017-Nov-16 14:16N 41°15' W 072°22'0 0.0
2017-Nov-16 13:58N 41°15' W 072°22'0 0.0
2017-Nov-16 13:28N 41°15' W 072°22'2 3.8
2017-Nov-16 13:00N 41°17' W 072°21'1 1.3
2017-Nov-16 12:30N 41°17' W 072°21'2 4.1
2017-Nov-16 12:00N 41°15' W 072°22'1 2.8
2017-Nov-16 11:30N 41°16' W 072°20'1 1.4
2017-Nov-16 11:00N 41°16' W 072°21'1 1.5
2017-Nov-16 10:30N 41°16' W 072°20'1 2.1
2017-Nov-16 09:56N 41°17' W 072°21'0 0.0
2017-Nov-16 09:27N 41°17' W 072°21'0 0.0
2017-Nov-16 08:51N 41°17' W 072°21'0 0.1
2017-Nov-16 08:27N 41°17' W 072°21'1 2.8
2017-Nov-16 08:00N 41°16' W 072°20'2 2.9
2017-Nov-16 07:27N 41°15' W 072°22'1 1.9
2017-Nov-16 07:00N 41°16' W 072°21'2 3.6
2017-Nov-16 06:30N 41°17' W 072°21'2 3.7
2017-Nov-16 06:00N 41°15' W 072°21'2 3.0
2017-Nov-16 05:28N 41°14' W 072°22'1 1.2
2017-Nov-16 04:58N 41°15' W 072°22'0 0.7
2017-Nov-16 04:29N 41°15' W 072°22'2 4.6
2017-Nov-16 04:01N 41°17' W 072°21'0 0.2
2017-Nov-16 03:30N 41°17' W 072°21'2 4.0
2017-Nov-16 02:57N 41°15' W 072°22'1 1.3
2017-Nov-16 02:31N 41°15' W 072°21'2 3.9
2017-Nov-16 02:00N 41°17' W 072°21'1 1.6
2017-Nov-16 01:30N 41°17' W 072°21'2 3.4
2017-Nov-16 01:00N 41°15' W 072°22'1 2.7
2017-Nov-16 00:30N 41°16' W 072°21'2 2.9
2017-Nov-15 23:57N 41°17' W 072°21'0 0.0
2017-Nov-15 22:57N 41°17' W 072°21'0 0.0
2017-Nov-15 22:27N 41°17' W 072°21'0 0.0
2017-Nov-15 21:57N 41°17' W 072°21'0 0.0
2017-Nov-15 21:09N 41°17' W 072°21'0 0.0
2017-Nov-15 20:57N 41°17' W 072°21'0 0.0
2017-Nov-15 20:27N 41°17' W 072°21'0 0.0
2017-Nov-15 19:57N 41°17' W 072°21'0 0.0
2017-Nov-15 19:27N 41°17' W 072°21'0 0.0
2017-Nov-15 18:57N 41°17' W 072°21'0 0.5
2017-Nov-15 18:30N 41°17' W 072°21'2 3.8
2017-Nov-15 18:00N 41°15' W 072°21'0 0.4
2017-Nov-15 17:29N 41°15' W 072°22'2 3.5
2017-Nov-15 17:00N 41°17' W 072°21'0 0.7
2017-Nov-15 16:26N 41°17' W 072°21'0 0.0
2017-Nov-15 15:57N 41°17' W 072°21'0 0.0
2017-Nov-15 15:27N 41°17' W 072°21'0 0.0
2017-Nov-15 14:57N 41°17' W 072°21'0 0.0
2017-Nov-15 14:30N 41°17' W 072°21'0 0.0
2017-Nov-15 06:53N 41°17' W 072°21'0 0.0
2017-Nov-15 06:29N 41°17' W 072°21'0 0.0
2017-Nov-15 05:59N 41°17' W 072°21'0 0.0
2017-Nov-15 05:29N 41°17' W 072°21'0 0.0
2017-Nov-15 04:47N 41°17' W 072°21'0 0.1
2017-Nov-15 04:29N 41°17' W 072°21'0 0.0
2017-Nov-15 03:59N 41°17' W 072°21'0 0.0
2017-Nov-14 23:35N 41°17' W 072°21'0 2.1
2017-Nov-14 23:30N 41°17' W 072°21'2 4.0
2017-Nov-14 22:58N 41°15' W 072°22'0 0.0
2017-Nov-14 22:29N 41°15' W 072°22'0 0.0
2017-Nov-14 21:47N 41°15' W 072°22'0 0.0
2017-Nov-14 21:29N 41°15' W 072°22'0 0.0
2017-Nov-14 20:58N 41°15' W 072°22'0 0.0
2017-Nov-14 20:29N 41°15' W 072°22'0 0.1
2017-Nov-14 19:55N 41°15' W 072°22'0 0.0
2017-Nov-14 19:25N 41°15' W 072°22'0 0.1
2017-Nov-14 19:00N 41°15' W 072°22'0 0.1
2017-Nov-14 18:29N 41°15' W 072°22'0 0.1
2017-Nov-14 17:57N 41°15' W 072°22'2 3.7
2017-Nov-14 17:30N 41°16' W 072°20'1 2.1
2017-Nov-14 17:01N 41°17' W 072°21'1 2.8
2017-Nov-14 16:30N 41°16' W 072°21'1 0.7
2017-Nov-14 14:30N 41°15' W 072°22'0 0.0
2017-Nov-14 13:56N 41°15' W 072°22'0 0.0
2017-Nov-14 13:26N 41°15' W 072°22'0 0.0
2017-Nov-14 12:56N 41°15' W 072°22'0 0.0
2017-Nov-14 11:44N 41°15' W 072°22'0 0.0
2017-Nov-14 11:26N 41°15' W 072°22'0 0.0
2017-Nov-14 10:56N 41°15' W 072°22'0 0.0
2017-Nov-14 10:26N 41°15' W 072°22'0 0.0
2017-Nov-14 09:56N 41°15' W 072°22'0 0.0
2017-Nov-14 09:26N 41°15' W 072°22'0 0.0
2017-Nov-14 08:56N 41°15' W 072°22'0 0.0
2017-Nov-14 08:26N 41°15' W 072°22'0 0.0
2017-Nov-14 07:44N 41°15' W 072°22'0 0.0
2017-Nov-14 07:26N 41°15' W 072°22'0 0.0
2017-Nov-14 06:56N 41°15' W 072°22'0 0.0
2017-Nov-14 06:26N 41°15' W 072°22'0 0.0
2017-Nov-14 05:56N 41°15' W 072°22'0 0.0
2017-Nov-14 05:26N 41°15' W 072°22'0 0.0
2017-Nov-14 04:56N 41°15' W 072°22'0 0.0
2017-Nov-14 04:26N 41°15' W 072°22'0 0.0
2017-Nov-14 03:56N 41°15' W 072°22'0 0.0
2017-Nov-14 03:26N 41°15' W 072°22'0 0.0
2017-Nov-14 02:56N 41°15' W 072°22'0 0.0
2017-Nov-14 02:26N 41°15' W 072°22'0 0.0
2017-Nov-14 01:50N 41°15' W 072°22'0 0.0
2017-Nov-14 01:26N 41°15' W 072°22'0 0.0
2017-Nov-14 00:56N 41°15' W 072°22'0 0.0
2017-Nov-14 00:20N 41°15' W 072°22'0 0.0
2017-Nov-13 23:56N 41°15' W 072°22'0 0.0
2017-Nov-13 23:26N 41°15' W 072°22'0 0.0
2017-Nov-13 22:56N 41°15' W 072°22'0 0.0
2017-Nov-13 22:26N 41°15' W 072°22'0 0.0
2017-Nov-13 21:56N 41°15' W 072°22'  
Track history (hours):
 
Tides and Currents Weather Stations Pressure Air Temp Water Temp Dewpoint Dewpoint Depression Visibility Wind Speed Wind Dir Waves Ship Positions

Paul Andrew

Owner: Donjon Marine Co., Inc., HILLSIDE, NJ. More information available from US FCC via Universal Licensing System and Coast Guard Vessel Documentation Center.

Last reported at 2017-Nov-23 09:00 UTC. Time now 2017-Nov-23 09:26 UTC.
Position N 41°17' W 072°21'.

Length 20 m; draft 2.5 m.

Type: Tug. MMSI: 366979030.

Date/timePositionNaut miles runAvg speedWind from/ knotsBaromVisibWave heightAir tempDewpointWater temp
2017-Nov-23 09:00N 41°17' W 072°21'1 1.3
2017-Nov-23 08:29N 41°17' W 072°21'0 0.0
2017-Nov-23 07:59N 41°17' W 072°21'0 0.0
2017-Nov-23 07:29N 41°17' W 072°21'0 0.0
2017-Nov-23 06:53N 41°17' W 072°21'0 0.2
2017-Nov-23 06:30N 41°17' W 072°21'2 4.4
2017-Nov-23 06:00N 41°15' W 072°21'0 0.6
2017-Nov-23 05:30N 41°15' W 072°22'2 3.4
2017-Nov-23 05:00N 41°17' W 072°21'0 0.4
2017-Nov-23 04:06N 41°17' W 072°21'0 0.0
2017-Nov-23 02:17N 41°17' W 072°21'2 6.0
2017-Nov-23 02:00N 41°16' W 072°21'1 1.0
2017-Nov-23 00:37N 41°15' W 072°22'0 0.1
2017-Nov-23 00:19N 41°15' W 072°22'1 4.3
2017-Nov-23 00:00N 41°16' W 072°21'2 2.9
2017-Nov-22 23:24N 41°17' W 072°21'0 0.0
2017-Nov-22 22:55N 41°17' W 072°21'1 3.2
2017-Nov-22 22:31N 41°16' W 072°20'2 2.8
2017-Nov-22 21:57N 41°15' W 072°22'2 3.5
2017-Nov-22 21:30N 41°16' W 072°20'1 1.7
2017-Nov-22 20:47N 41°17' W 072°21'0 0.0
2017-Nov-22 20:23N 41°17' W 072°21'0 0.0
2017-Nov-22 19:59N 41°17' W 072°21'2 3.7
2017-Nov-22 19:30N 41°16' W 072°21'  
2017-Nov-16 20:27N 41°15' W 072°16'2 4.6
2017-Nov-16 19:55N 41°15' W 072°19'2 5.0
2017-Nov-16 19:30N 41°15' W 072°22'0 0.1
2017-Nov-16 18:19N 41°15' W 072°22'0 0.0
2017-Nov-16 16:01N 41°15' W 072°22'0 0.0
2017-Nov-16 15:49N 41°15' W 072°22'0 0.0
2017-Nov-16 14:16N 41°15' W 072°22'0 0.0
2017-Nov-16 13:58N 41°15' W 072°22'0 0.0
2017-Nov-16 13:28N 41°15' W 072°22'2 3.8
2017-Nov-16 13:00N 41°17' W 072°21'1 1.3
2017-Nov-16 12:30N 41°17' W 072°21'2 4.1
2017-Nov-16 12:00N 41°15' W 072°22'1 2.8
2017-Nov-16 11:30N 41°16' W 072°20'1 1.4
2017-Nov-16 11:00N 41°16' W 072°21'1 1.5
2017-Nov-16 10:30N 41°16' W 072°20'1 2.1
2017-Nov-16 09:56N 41°17' W 072°21'0 0.0
2017-Nov-16 09:27N 41°17' W 072°21'0 0.0
2017-Nov-16 08:51N 41°17' W 072°21'0 0.1
2017-Nov-16 08:27N 41°17' W 072°21'1 2.8
2017-Nov-16 08:00N 41°16' W 072°20'2 2.9
2017-Nov-16 07:27N 41°15' W 072°22'1 1.9
2017-Nov-16 07:00N 41°16' W 072°21'2 3.6
2017-Nov-16 06:30N 41°17' W 072°21'2 3.7
2017-Nov-16 06:00N 41°15' W 072°21'2 3.0
2017-Nov-16 05:28N 41°14' W 072°22'1 1.2
2017-Nov-16 04:58N 41°15' W 072°22'0 0.7
2017-Nov-16 04:29N 41°15' W 072°22'2 4.6
2017-Nov-16 04:01N 41°17' W 072°21'0 0.2
2017-Nov-16 03:30N 41°17' W 072°21'2 4.0
2017-Nov-16 02:57N 41°15' W 072°22'1 1.3
2017-Nov-16 02:31N 41°15' W 072°21'2 3.9
2017-Nov-16 02:00N 41°17' W 072°21'1 1.6
2017-Nov-16 01:30N 41°17' W 072°21'2 3.4
2017-Nov-16 01:00N 41°15' W 072°22'1 2.7
2017-Nov-16 00:30N 41°16' W 072°21'2 2.9
2017-Nov-15 23:57N 41°17' W 072°21'0 0.0
2017-Nov-15 22:57N 41°17' W 072°21'0 0.0
2017-Nov-15 22:27N 41°17' W 072°21'0 0.0
2017-Nov-15 21:57N 41°17' W 072°21'0 0.0
2017-Nov-15 21:09N 41°17' W 072°21'0 0.0
2017-Nov-15 20:57N 41°17' W 072°21'0 0.0
2017-Nov-15 20:27N 41°17' W 072°21'0 0.0
2017-Nov-15 19:57N 41°17' W 072°21'0 0.0
2017-Nov-15 19:27N 41°17' W 072°21'0 0.0
2017-Nov-15 18:57N 41°17' W 072°21'0 0.5
2017-Nov-15 18:30N 41°17' W 072°21'2 3.8
2017-Nov-15 18:00N 41°15' W 072°21'0 0.4
2017-Nov-15 17:29N 41°15' W 072°22'2 3.5
2017-Nov-15 17:00N 41°17' W 072°21'0 0.7
2017-Nov-15 16:26N 41°17' W 072°21'0 0.0
2017-Nov-15 15:57N 41°17' W 072°21'0 0.0
2017-Nov-15 15:27N 41°17' W 072°21'0 0.0
2017-Nov-15 14:57N 41°17' W 072°21'0 0.0
2017-Nov-15 14:30N 41°17' W 072°21'0 0.0
2017-Nov-15 06:53N 41°17' W 072°21'0 0.0
2017-Nov-15 06:29N 41°17' W 072°21'0 0.0
2017-Nov-15 05:59N 41°17' W 072°21'0 0.0
2017-Nov-15 05:29N 41°17' W 072°21'0 0.0
2017-Nov-15 04:47N 41°17' W 072°21'0 0.1
2017-Nov-15 04:29N 41°17' W 072°21'0 0.0
2017-Nov-15 03:59N 41°17' W 072°21'0 0.0
2017-Nov-14 23:35N 41°17' W 072°21'0 2.1
2017-Nov-14 23:30N 41°17' W 072°21'2 4.0
2017-Nov-14 22:58N 41°15' W 072°22'0 0.0
2017-Nov-14 22:29N 41°15' W 072°22'0 0.0
2017-Nov-14 21:47N 41°15' W 072°22'0 0.0
2017-Nov-14 21:29N 41°15' W 072°22'0 0.0
2017-Nov-14 20:58N 41°15' W 072°22'0 0.0
2017-Nov-14 20:29N 41°15' W 072°22'0 0.1
2017-Nov-14 19:55N 41°15' W 072°22'0 0.0
2017-Nov-14 19:25N 41°15' W 072°22'0 0.1
2017-Nov-14 19:00N 41°15' W 072°22'0 0.1
2017-Nov-14 18:29N 41°15' W 072°22'0 0.1
2017-Nov-14 17:57N 41°15' W 072°22'2 3.7
2017-Nov-14 17:30N 41°16' W 072°20'1 2.1
2017-Nov-14 17:01N 41°17' W 072°21'1 2.8
2017-Nov-14 16:30N 41°16' W 072°21'1 0.7
2017-Nov-14 14:30N 41°15' W 072°22'0 0.0
2017-Nov-14 13:56N 41°15' W 072°22'0 0.0
2017-Nov-14 13:26N 41°15' W 072°22'0 0.0
2017-Nov-14 12:56N 41°15' W 072°22'0 0.0
2017-Nov-14 11:44N 41°15' W 072°22'0 0.0
2017-Nov-14 11:26N 41°15' W 072°22'0 0.0
2017-Nov-14 10:56N 41°15' W 072°22'0 0.0
2017-Nov-14 10:26N 41°15' W 072°22'0 0.0
2017-Nov-14 09:56N 41°15' W 072°22'0 0.0
2017-Nov-14 09:26N 41°15' W 072°22'0 0.0
2017-Nov-14 08:56N 41°15' W 072°22'0 0.0
2017-Nov-14 08:26N 41°15' W 072°22'0 0.0
2017-Nov-14 07:44N 41°15' W 072°22'0 0.0
2017-Nov-14 07:26N 41°15' W 072°22'0 0.0
2017-Nov-14 06:56N 41°15' W 072°22'0 0.0
2017-Nov-14 06:26N 41°15' W 072°22'0 0.0
2017-Nov-14 05:56N 41°15' W 072°22'0 0.0
2017-Nov-14 05:26N 41°15' W 072°22'0 0.0
2017-Nov-14 04:56N 41°15' W 072°22'0 0.0
2017-Nov-14 04:26N 41°15' W 072°22'0 0.0
2017-Nov-14 03:56N 41°15' W 072°22'0 0.0
2017-Nov-14 03:26N 41°15' W 072°22'0 0.0
2017-Nov-14 02:56N 41°15' W 072°22'0 0.0
2017-Nov-14 02:26N 41°15' W 072°22'0 0.0
2017-Nov-14 01:50N 41°15' W 072°22'0 0.0
2017-Nov-14 01:26N 41°15' W 072°22'0 0.0
2017-Nov-14 00:56N 41°15' W 072°22'0 0.0
2017-Nov-14 00:20N 41°15' W 072°22'0 0.0
2017-Nov-13 23:56N 41°15' W 072°22'0 0.0
2017-Nov-13 23:26N 41°15' W 072°22'0 0.0
2017-Nov-13 22:56N 41°15' W 072°22'0 0.0
2017-Nov-13 22:26N 41°15' W 072°22'0 0.0
2017-Nov-13 21:56N 41°15' W 072°22'  

Dump ship's entire track history